sensor_id;sensor_type;location;lat;lon;timestamp;temperature;humidity
64499;SHT31;51087;55.718;21.122;2022-11-20T00:01:25;-3.36;87.31
64499;SHT31;51087;55.718;21.122;2022-11-20T00:03:52;-3.41;87.30
64499;SHT31;51087;55.718;21.122;2022-11-20T00:06:19;-3.46;87.39
64499;SHT31;51087;55.718;21.122;2022-11-20T00:08:45;-3.47;87.53
64499;SHT31;51087;55.718;21.122;2022-11-20T00:11:20;-3.48;87.53
64499;SHT31;51087;55.718;21.122;2022-11-20T00:13:48;-3.51;87.57
64499;SHT31;51087;55.718;21.122;2022-11-20T00:16:15;-3.58;87.98
64499;SHT31;51087;55.718;21.122;2022-11-20T00:18:41;-3.68;88.25
64499;SHT31;51087;55.718;21.122;2022-11-20T00:21:11;-3.71;88.32
64499;SHT31;51087;55.718;21.122;2022-11-20T00:23:37;-3.75;88.50
64499;SHT31;51087;55.718;21.122;2022-11-20T00:26:13;-3.85;88.69
64499;SHT31;51087;55.718;21.122;2022-11-20T00:28:40;-3.90;89.13
64499;SHT31;51087;55.718;21.122;2022-11-20T00:31:10;-3.98;89.12
64499;SHT31;51087;55.718;21.122;2022-11-20T00:33:36;-3.93;89.12
64499;SHT31;51087;55.718;21.122;2022-11-20T00:36:06;-4.00;89.36
64499;SHT31;51087;55.718;21.122;2022-11-20T00:38:32;-4.03;89.54
64499;SHT31;51087;55.718;21.122;2022-11-20T00:40:59;-4.10;89.59
64499;SHT31;51087;55.718;21.122;2022-11-20T00:43:25;-4.16;89.96
64499;SHT31;51087;55.718;21.122;2022-11-20T00:45:56;-4.21;90.15
64499;SHT31;51087;55.718;21.122;2022-11-20T00:48:22;-4.34;90.48
64499;SHT31;51087;55.718;21.122;2022-11-20T00:50:48;-4.37;90.85
64499;SHT31;51087;55.718;21.122;2022-11-20T00:53:14;-4.44;91.10
64499;SHT31;51087;55.718;21.122;2022-11-20T00:55:39;-4.50;91.44
64499;SHT31;51087;55.718;21.122;2022-11-20T00:58:04;-4.61;91.74
64499;SHT31;51087;55.718;21.122;2022-11-20T01:00:30;-4.61;91.80
64499;SHT31;51087;55.718;21.122;2022-11-20T01:02:55;-4.69;92.16
64499;SHT31;51087;55.718;21.122;2022-11-20T01:05:21;-4.75;92.39
64499;SHT31;51087;55.718;21.122;2022-11-20T01:07:46;-4.79;92.58
64499;SHT31;51087;55.718;21.122;2022-11-20T01:10:12;-4.85;92.94
64499;SHT31;51087;55.718;21.122;2022-11-20T01:12:37;-4.91;93.07
64499;SHT31;51087;55.718;21.122;2022-11-20T01:15:03;-4.96;93.20
64499;SHT31;51087;55.718;21.122;2022-11-20T01:17:28;-5.02;93.36
64499;SHT31;51087;55.718;21.122;2022-11-20T01:19:55;-5.03;93.79
64499;SHT31;51087;55.718;21.122;2022-11-20T01:22:21;-5.07;93.96
64499;SHT31;51087;55.718;21.122;2022-11-20T01:24:46;-5.10;93.87
64499;SHT31;51087;55.718;21.122;2022-11-20T01:27:12;-5.16;93.85
64499;SHT31;51087;55.718;21.122;2022-11-20T01:29:37;-5.12;94.01
64499;SHT31;51087;55.718;21.122;2022-11-20T01:32:03;-5.19;94.07
64499;SHT31;51087;55.718;21.122;2022-11-20T01:34:28;-5.21;94.06
64499;SHT31;51087;55.718;21.122;2022-11-20T01:36:54;-5.20;94.16
64499;SHT31;51087;55.718;21.122;2022-11-20T01:39:22;-5.28;94.53
64499;SHT31;51087;55.718;21.122;2022-11-20T01:41:49;-5.34;94.85
64499;SHT31;51087;55.718;21.122;2022-11-20T01:44:56;-5.35;95.00
64499;SHT31;51087;55.718;21.122;2022-11-20T01:52:45;-5.50;95.41
64499;SHT31;51087;55.718;21.122;2022-11-20T01:55:17;-5.52;95.53
64499;SHT31;51087;55.718;21.122;2022-11-20T01:57:44;-5.54;95.64
64499;SHT31;51087;55.718;21.122;2022-11-20T02:00:13;-5.58;95.77
64499;SHT31;51087;55.718;21.122;2022-11-20T02:02:41;-5.54;95.90
64499;SHT31;51087;55.718;21.122;2022-11-20T02:05:34;-5.58;96.11
64499;SHT31;51087;55.718;21.122;2022-11-20T02:08:02;-5.59;96.14
64499;SHT31;51087;55.718;21.122;2022-11-20T02:10:29;-5.61;96.18
64499;SHT31;51087;55.718;21.122;2022-11-20T02:12:55;-5.55;96.22
64499;SHT31;51087;55.718;21.122;2022-11-20T02:15:40;-5.57;96.20
64499;SHT31;51087;55.718;21.122;2022-11-20T02:18:05;-5.52;96.13
64499;SHT31;51087;55.718;21.122;2022-11-20T02:20:31;-5.54;96.11
64499;SHT31;51087;55.718;21.122;2022-11-20T02:23:35;-5.57;96.17
64499;SHT31;51087;55.718;21.122;2022-11-20T02:26:06;-5.57;96.14
64499;SHT31;51087;55.718;21.122;2022-11-20T02:28:33;-5.57;96.15
64499;SHT31;51087;55.718;21.122;2022-11-20T02:30:58;-5.52;96.18
64499;SHT31;51087;55.718;21.122;2022-11-20T02:33:24;-5.51;96.17
64499;SHT31;51087;55.718;21.122;2022-11-20T02:35:49;-5.46;96.03
64499;SHT31;51087;55.718;21.122;2022-11-20T02:38:15;-5.46;95.83
64499;SHT31;51087;55.718;21.122;2022-11-20T02:40:41;-5.34;95.78
64499;SHT31;51087;55.718;21.122;2022-11-20T02:43:07;-5.38;95.26
64499;SHT31;51087;55.718;21.122;2022-11-20T02:45:33;-5.33;95.43
64499;SHT31;51087;55.718;21.122;2022-11-20T02:47:59;-5.31;95.34
64499;SHT31;51087;55.718;21.122;2022-11-20T02:50:24;-5.33;95.22
64499;SHT31;51087;55.718;21.122;2022-11-20T02:52:50;-5.34;95.19
64499;SHT31;51087;55.718;21.122;2022-11-20T02:55:15;-5.46;95.26
64499;SHT31;51087;55.718;21.122;2022-11-20T02:57:41;-5.46;95.40
64499;SHT31;51087;55.718;21.122;2022-11-20T03:00:07;-5.47;95.52
64499;SHT31;51087;55.718;21.122;2022-11-20T03:02:33;-5.47;95.42
64499;SHT31;51087;55.718;21.122;2022-11-20T03:04:58;-5.52;95.41
64499;SHT31;51087;55.718;21.122;2022-11-20T03:07:24;-5.50;95.51
64499;SHT31;51087;55.718;21.122;2022-11-20T03:09:49;-5.51;95.56
64499;SHT31;51087;55.718;21.122;2022-11-20T03:12:15;-5.51;95.58
64499;SHT31;51087;55.718;21.122;2022-11-20T03:14:40;-5.44;95.37
64499;SHT31;51087;55.718;21.122;2022-11-20T03:17:06;-5.44;95.30
64499;SHT31;51087;55.718;21.122;2022-11-20T03:19:31;-5.46;95.36
64499;SHT31;51087;55.718;21.122;2022-11-20T03:21:57;-5.46;95.34
64499;SHT31;51087;55.718;21.122;2022-11-20T03:24:22;-5.42;95.22
64499;SHT31;51087;55.718;21.122;2022-11-20T03:26:48;-5.47;95.34
64499;SHT31;51087;55.718;21.122;2022-11-20T03:29:13;-5.52;95.46
64499;SHT31;51087;55.718;21.122;2022-11-20T03:31:40;-5.50;95.55
64499;SHT31;51087;55.718;21.122;2022-11-20T03:34:07;-5.54;95.66
64499;SHT31;51087;55.718;21.122;2022-11-20T03:36:33;-5.58;95.67
64499;SHT31;51087;55.718;21.122;2022-11-20T03:38:59;-5.58;95.86
64499;SHT31;51087;55.718;21.122;2022-11-20T03:41:27;-5.54;95.73
64499;SHT31;51087;55.718;21.122;2022-11-20T03:43:59;-5.57;95.82
64499;SHT31;51087;55.718;21.122;2022-11-20T03:46:25;-5.61;95.95
64499;SHT31;51087;55.718;21.122;2022-11-20T03:48:51;-5.61;96.18
64499;SHT31;51087;55.718;21.122;2022-11-20T03:51:21;-5.67;96.18
64499;SHT31;51087;55.718;21.122;2022-11-20T03:53:49;-5.69;96.43
64499;SHT31;51087;55.718;21.122;2022-11-20T03:56:17;-5.68;96.49
64499;SHT31;51087;55.718;21.122;2022-11-20T03:58:43;-5.71;96.44
64499;SHT31;51087;55.718;21.122;2022-11-20T04:03:36;-5.67;96.40
64499;SHT31;51087;55.718;21.122;2022-11-20T04:06:05;-5.65;96.20
64499;SHT31;51087;55.718;21.122;2022-11-20T04:08:31;-5.64;96.35
64499;SHT31;51087;55.718;21.122;2022-11-20T04:13:39;-5.67;96.34
64499;SHT31;51087;55.718;21.122;2022-11-20T04:16:06;-5.65;96.46
64499;SHT31;51087;55.718;21.122;2022-11-20T04:18:32;-5.72;96.45
64499;SHT31;51087;55.718;21.122;2022-11-20T04:20:58;-5.68;96.48
64499;SHT31;51087;55.718;21.122;2022-11-20T04:23:24;-5.65;96.53
64499;SHT31;51087;55.718;21.122;2022-11-20T04:25:50;-5.64;96.51
64499;SHT31;51087;55.718;21.122;2022-11-20T04:28:15;-5.62;96.46
64499;SHT31;51087;55.718;21.122;2022-11-20T04:30:41;-5.54;96.39
64499;SHT31;51087;55.718;21.122;2022-11-20T04:33:06;-5.62;96.49
64499;SHT31;51087;55.718;21.122;2022-11-20T04:35:34;-5.64;96.75
64499;SHT31;51087;55.718;21.122;2022-11-20T04:38:00;-5.72;96.90
64499;SHT31;51087;55.718;21.122;2022-11-20T04:40:25;-5.72;97.06
64499;SHT31;51087;55.718;21.122;2022-11-20T04:42:51;-5.71;97.14
64499;SHT31;51087;55.718;21.122;2022-11-20T04:45:16;-5.61;96.85
64499;SHT31;51087;55.718;21.122;2022-11-20T04:47:42;-5.54;96.69
64499;SHT31;51087;55.718;21.122;2022-11-20T04:50:07;-5.51;96.55
64499;SHT31;51087;55.718;21.122;2022-11-20T04:52:33;-5.47;96.22
64499;SHT31;51087;55.718;21.122;2022-11-20T04:54:58;-5.40;95.97
64499;SHT31;51087;55.718;21.122;2022-11-20T04:57:25;-5.44;96.00
64499;SHT31;51087;55.718;21.122;2022-11-20T04:59:50;-5.50;96.04
64499;SHT31;51087;55.718;21.122;2022-11-20T05:02:16;-5.54;96.22
64499;SHT31;51087;55.718;21.122;2022-11-20T05:04:41;-5.62;96.32
64499;SHT31;51087;55.718;21.122;2022-11-20T05:07:07;-5.67;96.42
64499;SHT31;51087;55.718;21.122;2022-11-20T05:09:32;-5.65;96.54
64499;SHT31;51087;55.718;21.122;2022-11-20T05:11:58;-5.64;96.74
64499;SHT31;51087;55.718;21.122;2022-11-20T05:14:23;-5.68;96.90
64499;SHT31;51087;55.718;21.122;2022-11-20T05:16:48;-5.62;97.08
64499;SHT31;51087;55.718;21.122;2022-11-20T05:19:14;-5.59;96.80
64499;SHT31;51087;55.718;21.122;2022-11-20T05:21:39;-5.57;96.63
64499;SHT31;51087;55.718;21.122;2022-11-20T05:24:05;-5.62;96.52
64499;SHT31;51087;55.718;21.122;2022-11-20T05:26:31;-5.61;96.63
64499;SHT31;51087;55.718;21.122;2022-11-20T05:28:56;-5.57;96.53
64499;SHT31;51087;55.718;21.122;2022-11-20T05:31:23;-5.61;96.40
64499;SHT31;51087;55.718;21.122;2022-11-20T05:33:49;-5.64;96.44
64499;SHT31;51087;55.718;21.122;2022-11-20T05:36:15;-5.61;96.53
64499;SHT31;51087;55.718;21.122;2022-11-20T05:38:41;-5.59;96.32
64499;SHT31;51087;55.718;21.122;2022-11-20T05:41:13;-5.61;96.44
64499;SHT31;51087;55.718;21.122;2022-11-20T05:43:40;-5.55;96.31
64499;SHT31;51087;55.718;21.122;2022-11-20T05:46:07;-5.61;96.40
64499;SHT31;51087;55.718;21.122;2022-11-20T05:48:34;-5.64;96.60
64499;SHT31;51087;55.718;21.122;2022-11-20T05:51:01;-5.62;96.65
64499;SHT31;51087;55.718;21.122;2022-11-20T05:53:27;-5.64;96.66
64499;SHT31;51087;55.718;21.122;2022-11-20T05:56:00;-5.62;96.67
64499;SHT31;51087;55.718;21.122;2022-11-20T05:58:25;-5.57;96.56
64499;SHT31;51087;55.718;21.122;2022-11-20T06:00:51;-5.55;96.54
64499;SHT31;51087;55.718;21.122;2022-11-20T06:03:16;-5.52;96.31
64499;SHT31;51087;55.718;21.122;2022-11-20T06:05:42;-5.50;96.21
64499;SHT31;51087;55.718;21.122;2022-11-20T06:08:07;-5.47;95.95
64499;SHT31;51087;55.718;21.122;2022-11-20T06:10:33;-5.51;95.80
64499;SHT31;51087;55.718;21.122;2022-11-20T06:12:58;-5.54;95.81
64499;SHT31;51087;55.718;21.122;2022-11-20T06:15:24;-5.58;95.84
64499;SHT31;51087;55.718;21.122;2022-11-20T06:17:53;-5.61;95.92
64499;SHT31;51087;55.718;21.122;2022-11-20T06:20:20;-5.64;96.03
64499;SHT31;51087;55.718;21.122;2022-11-20T06:22:45;-5.64;95.92
64499;SHT31;51087;55.718;21.122;2022-11-20T06:25:11;-5.64;95.88
64499;SHT31;51087;55.718;21.122;2022-11-20T06:27:36;-5.68;96.00
64499;SHT31;51087;55.718;21.122;2022-11-20T06:30:02;-5.72;96.18
64499;SHT31;51087;55.718;21.122;2022-11-20T06:32:27;-5.72;96.29
64499;SHT31;51087;55.718;21.122;2022-11-20T06:34:53;-5.74;96.42
64499;SHT31;51087;55.718;21.122;2022-11-20T06:37:18;-5.72;96.36
64499;SHT31;51087;55.718;21.122;2022-11-20T06:39:44;-5.74;96.46
64499;SHT31;51087;55.718;21.122;2022-11-20T06:42:09;-5.69;96.50
64499;SHT31;51087;55.718;21.122;2022-11-20T06:44:34;-5.69;96.33
64499;SHT31;51087;55.718;21.122;2022-11-20T06:47:00;-5.67;96.19
64499;SHT31;51087;55.718;21.122;2022-11-20T06:49:26;-5.67;96.15
64499;SHT31;51087;55.718;21.122;2022-11-20T06:51:51;-5.61;95.74
64499;SHT31;51087;55.718;21.122;2022-11-20T06:54:17;-5.54;95.58
64499;SHT31;51087;55.718;21.122;2022-11-20T06:56:46;-5.52;95.35
64499;SHT31;51087;55.718;21.122;2022-11-20T06:59:12;-5.41;95.07
64499;SHT31;51087;55.718;21.122;2022-11-20T07:01:37;-5.34;94.40
64499;SHT31;51087;55.718;21.122;2022-11-20T07:04:03;-5.31;94.06
64499;SHT31;51087;55.718;21.122;2022-11-20T07:06:28;-5.27;93.82
64499;SHT31;51087;55.718;21.122;2022-11-20T07:08:54;-5.33;93.74
64499;SHT31;51087;55.718;21.122;2022-11-20T07:11:19;-5.30;93.88
64499;SHT31;51087;55.718;21.122;2022-11-20T07:13:44;-5.31;93.76
64499;SHT31;51087;55.718;21.122;2022-11-20T07:16:10;-5.31;93.64
64499;SHT31;51087;55.718;21.122;2022-11-20T07:18:36;-5.35;93.64
64499;SHT31;51087;55.718;21.122;2022-11-20T07:21:02;-5.41;93.87
64499;SHT31;51087;55.718;21.122;2022-11-20T07:23:28;-5.38;93.86
64499;SHT31;51087;55.718;21.122;2022-11-20T07:25:54;-5.35;93.64
64499;SHT31;51087;55.718;21.122;2022-11-20T07:28:19;-5.23;93.51
64499;SHT31;51087;55.718;21.122;2022-11-20T07:30:50;-5.07;92.44
64499;SHT31;51087;55.718;21.122;2022-11-20T07:33:16;-4.95;91.80
64499;SHT31;51087;55.718;21.122;2022-11-20T07:35:41;-4.82;91.37
64499;SHT31;51087;55.718;21.122;2022-11-20T07:38:06;-4.68;90.55
64499;SHT31;51087;55.718;21.122;2022-11-20T07:40:33;-4.54;89.68
64499;SHT31;51087;55.718;21.122;2022-11-20T07:42:58;-4.43;89.04
64499;SHT31;51087;55.718;21.122;2022-11-20T07:45:24;-4.24;88.54
64499;SHT31;51087;55.718;21.122;2022-11-20T07:47:50;-4.06;87.89
64499;SHT31;51087;55.718;21.122;2022-11-20T07:50:16;-3.92;87.16
64499;SHT31;51087;55.718;21.122;2022-11-20T07:52:42;-3.77;86.63
64499;SHT31;51087;55.718;21.122;2022-11-20T07:55:08;-3.57;85.97
64499;SHT31;51087;55.718;21.122;2022-11-20T07:57:34;-3.37;85.19
64499;SHT31;51087;55.718;21.122;2022-11-20T07:59:59;-3.14;84.18
64499;SHT31;51087;55.718;21.122;2022-11-20T08:02:25;-2.97;83.21
64499;SHT31;51087;55.718;21.122;2022-11-20T08:04:50;-2.68;82.18
64499;SHT31;51087;55.718;21.122;2022-11-20T08:07:16;-2.48;81.25
64499;SHT31;51087;55.718;21.122;2022-11-20T08:09:41;-2.22;80.32
64499;SHT31;51087;55.718;21.122;2022-11-20T08:12:07;-1.91;79.34
64499;SHT31;51087;55.718;21.122;2022-11-20T08:14:51;-1.68;78.10
64499;SHT31;51087;55.718;21.122;2022-11-20T08:17:16;-1.54;77.42
64499;SHT31;51087;55.718;21.122;2022-11-20T08:19:41;-1.19;76.65
64499;SHT31;51087;55.718;21.122;2022-11-20T08:22:07;-1.05;75.92
64499;SHT31;51087;55.718;21.122;2022-11-20T08:24:32;-0.88;75.40
64499;SHT31;51087;55.718;21.122;2022-11-20T08:26:58;-1.13;75.28
64499;SHT31;51087;55.718;21.122;2022-11-20T08:29:25;-1.15;75.76
64499;SHT31;51087;55.718;21.122;2022-11-20T08:31:51;-1.36;76.32
64499;SHT31;51087;55.718;21.122;2022-11-20T08:34:16;-1.54;77.30
64499;SHT31;51087;55.718;21.122;2022-11-20T08:36:41;-1.99;78.37
64499;SHT31;51087;55.718;21.122;2022-11-20T08:39:07;-1.85;78.76
64499;SHT31;51087;55.718;21.122;2022-11-20T08:41:32;-2.00;79.11
64499;SHT31;51087;55.718;21.122;2022-11-20T08:44:06;-2.36;80.23
64499;SHT31;51087;55.718;21.122;2022-11-20T08:48:59;-2.44;80.94
64499;SHT31;51087;55.718;21.122;2022-11-20T08:51:25;-2.54;81.53
64499;SHT31;51087;55.718;21.122;2022-11-20T08:53:50;-2.61;81.83
64499;SHT31;51087;55.718;21.122;2022-11-20T08:56:16;-2.71;82.14
64499;SHT31;51087;55.718;21.122;2022-11-20T08:58:42;-2.82;83.02
64499;SHT31;51087;55.718;21.122;2022-11-20T09:01:07;-3.05;83.67
64499;SHT31;51087;55.718;21.122;2022-11-20T09:03:33;-3.00;83.73
64499;SHT31;51087;55.718;21.122;2022-11-20T09:06:03;-3.13;84.28
64499;SHT31;51087;55.718;21.122;2022-11-20T09:08:28;-3.10;84.36
64499;SHT31;51087;55.718;21.122;2022-11-20T09:10:55;-3.16;84.91
64499;SHT31;51087;55.718;21.122;2022-11-20T09:13:22;-3.21;84.75
64499;SHT31;51087;55.718;21.122;2022-11-20T09:15:52;-3.17;85.22
64499;SHT31;51087;55.718;21.122;2022-11-20T09:18:17;-3.12;85.16
64499;SHT31;51087;55.718;21.122;2022-11-20T09:20:43;-3.20;85.00
64499;SHT31;51087;55.718;21.122;2022-11-20T09:23:08;-3.13;84.97
64499;SHT31;51087;55.718;21.122;2022-11-20T09:25:34;-3.12;85.10
64499;SHT31;51087;55.718;21.122;2022-11-20T09:27:59;-3.12;85.36
64499;SHT31;51087;55.718;21.122;2022-11-20T09:30:26;-3.09;85.45
64499;SHT31;51087;55.718;21.122;2022-11-20T09:32:52;-2.97;85.34
64499;SHT31;51087;55.718;21.122;2022-11-20T09:35:17;-3.00;85.27
64499;SHT31;51087;55.718;21.122;2022-11-20T09:37:43;-2.99;85.08
64499;SHT31;51087;55.718;21.122;2022-11-20T09:40:22;-2.93;85.23
64499;SHT31;51087;55.718;21.122;2022-11-20T09:46:11;-2.92;85.53
64499;SHT31;51087;55.718;21.122;2022-11-20T09:48:57;-2.89;85.60
64499;SHT31;51087;55.718;21.122;2022-11-20T09:51:39;-2.84;85.49
64499;SHT31;51087;55.718;21.122;2022-11-20T09:54:15;-2.92;85.80
64499;SHT31;51087;55.718;21.122;2022-11-20T09:56:50;-2.96;86.26
64499;SHT31;51087;55.718;21.122;2022-11-20T10:02:30;-3.02;86.18
64499;SHT31;51087;55.718;21.122;2022-11-20T10:05:06;-3.02;86.43
64499;SHT31;51087;55.718;21.122;2022-11-20T10:07:44;-2.88;86.10
64499;SHT31;51087;55.718;21.122;2022-11-20T10:10:18;-2.97;86.14
64499;SHT31;51087;55.718;21.122;2022-11-20T10:15:34;-2.82;85.88
64499;SHT31;51087;55.718;21.122;2022-11-20T10:31:30;-2.50;85.42
64499;SHT31;51087;55.718;21.122;2022-11-20T10:33:59;-2.41;85.36
64499;SHT31;51087;55.718;21.122;2022-11-20T10:36:30;-2.50;85.49
64499;SHT31;51087;55.718;21.122;2022-11-20T10:39:33;-2.47;85.98
64499;SHT31;51087;55.718;21.122;2022-11-20T10:42:00;-2.43;85.93
64499;SHT31;51087;55.718;21.122;2022-11-20T10:44:28;-2.37;85.82
64499;SHT31;51087;55.718;21.122;2022-11-20T10:47:17;-2.46;86.19
64499;SHT31;51087;55.718;21.122;2022-11-20T10:49:45;-2.53;86.52
64499;SHT31;51087;55.718;21.122;2022-11-20T10:52:44;-2.32;86.19
64499;SHT31;51087;55.718;21.122;2022-11-20T10:55:46;-2.34;85.96
64499;SHT31;51087;55.718;21.122;2022-11-20T10:58:30;-2.54;86.65
64499;SHT31;51087;55.718;21.122;2022-11-20T11:01:25;-2.46;86.76
64499;SHT31;51087;55.718;21.122;2022-11-20T11:03:53;-2.50;86.60
64499;SHT31;51087;55.718;21.122;2022-11-20T11:06:35;-2.50;86.92
64499;SHT31;51087;55.718;21.122;2022-11-20T11:09:08;-2.51;86.97
64499;SHT31;51087;55.718;21.122;2022-11-20T11:11:34;-2.46;86.83
64499;SHT31;51087;55.718;21.122;2022-11-20T11:14:26;-2.43;86.69
64499;SHT31;51087;55.718;21.122;2022-11-20T11:16:56;-2.30;86.54
64499;SHT31;51087;55.718;21.122;2022-11-20T11:19:23;-2.05;85.96
64499;SHT31;51087;55.718;21.122;2022-11-20T11:21:51;-1.86;85.06
64499;SHT31;51087;55.718;21.122;2022-11-20T11:24:28;-1.70;84.55
64499;SHT31;51087;55.718;21.122;2022-11-20T11:27:12;-1.54;84.10
64499;SHT31;51087;55.718;21.122;2022-11-20T11:29:38;-1.46;83.48
64499;SHT31;51087;55.718;21.122;2022-11-20T11:32:12;-1.36;83.36
64499;SHT31;51087;55.718;21.122;2022-11-20T11:34:39;-1.36;83.42
64499;SHT31;51087;55.718;21.122;2022-11-20T11:37:14;-1.55;83.44
64499;SHT31;51087;55.718;21.122;2022-11-20T11:39:43;-1.86;84.73
64499;SHT31;51087;55.718;21.122;2022-11-20T11:44:35;-1.82;85.50
64499;SHT31;51087;55.718;21.122;2022-11-20T11:47:24;-1.92;85.65
64499;SHT31;51087;55.718;21.122;2022-11-20T11:53:07;-2.10;86.43
64499;SHT31;51087;55.718;21.122;2022-11-20T12:03:37;-2.27;87.57
64499;SHT31;51087;55.718;21.122;2022-11-20T12:06:22;-2.34;87.77
64499;SHT31;51087;55.718;21.122;2022-11-20T12:08:53;-2.38;87.98
64499;SHT31;51087;55.718;21.122;2022-11-20T12:14:18;-2.50;88.62
64499;SHT31;51087;55.718;21.122;2022-11-20T12:16:50;-2.47;88.71
64499;SHT31;51087;55.718;21.122;2022-11-20T12:19:17;-2.46;88.75
64499;SHT31;51087;55.718;21.122;2022-11-20T12:21:49;-2.47;88.81
64499;SHT31;51087;55.718;21.122;2022-11-20T12:43:24;-2.38;89.30
64499;SHT31;51087;55.718;21.122;2022-11-20T12:46:23;-2.33;89.38
64499;SHT31;51087;55.718;21.122;2022-11-20T12:54:49;-2.30;89.47
64499;SHT31;51087;55.718;21.122;2022-11-20T13:02:56;-2.30;89.72
64499;SHT31;51087;55.718;21.122;2022-11-20T13:08:21;-2.30;89.98
64499;SHT31;51087;55.718;21.122;2022-11-20T13:18:49;-2.26;90.31
64499;SHT31;51087;55.718;21.122;2022-11-20T13:21:18;-2.25;90.33
64499;SHT31;51087;55.718;21.122;2022-11-20T13:23:45;-2.27;90.58
64499;SHT31;51087;55.718;21.122;2022-11-20T13:26:22;-2.32;90.60
64499;SHT31;51087;55.718;21.122;2022-11-20T13:29:02;-2.30;90.93
64499;SHT31;51087;55.718;21.122;2022-11-20T13:31:31;-2.27;90.86
64499;SHT31;51087;55.718;21.122;2022-11-20T13:33:58;-2.26;90.94
64499;SHT31;51087;55.718;21.122;2022-11-20T13:36:27;-2.30;91.21
64499;SHT31;51087;55.718;21.122;2022-11-20T13:38:55;-2.30;91.31
64499;SHT31;51087;55.718;21.122;2022-11-20T13:43:57;-2.30;91.61
64499;SHT31;51087;55.718;21.122;2022-11-20T13:46:23;-2.29;91.66
64499;SHT31;51087;55.718;21.122;2022-11-20T13:49:09;-2.26;91.60
64499;SHT31;51087;55.718;21.122;2022-11-20T13:59:49;-2.30;91.83
64499;SHT31;51087;55.718;21.122;2022-11-20T14:02:15;-2.30;91.88
64499;SHT31;51087;55.718;21.122;2022-11-20T14:04:45;-2.32;91.78
64499;SHT31;51087;55.718;21.122;2022-11-20T14:07:11;-2.33;91.90
64499;SHT31;51087;55.718;21.122;2022-11-20T14:09:36;-2.30;91.96
64499;SHT31;51087;55.718;21.122;2022-11-20T14:12:03;-2.30;91.84
64499;SHT31;51087;55.718;21.122;2022-11-20T14:14:48;-2.27;92.01
64499;SHT31;51087;55.718;21.122;2022-11-20T14:17:30;-2.29;91.93
64499;SHT31;51087;55.718;21.122;2022-11-20T14:20:11;-2.26;91.89
64499;SHT31;51087;55.718;21.122;2022-11-20T14:22:37;-2.22;91.81
64499;SHT31;51087;55.718;21.122;2022-11-20T14:27:42;-2.26;91.98
64499;SHT31;51087;55.718;21.122;2022-11-20T14:32:41;-2.22;91.55
64499;SHT31;51087;55.718;21.122;2022-11-20T14:35:09;-2.20;91.51
64499;SHT31;51087;55.718;21.122;2022-11-20T14:37:37;-2.23;91.64
64499;SHT31;51087;55.718;21.122;2022-11-20T14:42:56;-2.22;91.46
64499;SHT31;51087;55.718;21.122;2022-11-20T14:45:22;-2.20;90.93
64499;SHT31;51087;55.718;21.122;2022-11-20T14:47:50;-2.25;91.01
64499;SHT31;51087;55.718;21.122;2022-11-20T14:52:58;-2.26;91.29
64499;SHT31;51087;55.718;21.122;2022-11-20T14:55:31;-2.26;91.31
64499;SHT31;51087;55.718;21.122;2022-11-20T14:58:00;-2.26;91.30
64499;SHT31;51087;55.718;21.122;2022-11-20T15:00:26;-2.27;91.25
64499;SHT31;51087;55.718;21.122;2022-11-20T15:02:52;-2.25;91.41
64499;SHT31;51087;55.718;21.122;2022-11-20T15:05:23;-2.22;91.07
64499;SHT31;51087;55.718;21.122;2022-11-20T15:08:08;-2.27;90.98
64499;SHT31;51087;55.718;21.122;2022-11-20T15:10:34;-2.29;91.10
64499;SHT31;51087;55.718;21.122;2022-11-20T15:13:03;-2.29;91.34
64499;SHT31;51087;55.718;21.122;2022-11-20T15:15:30;-2.27;91.47
64499;SHT31;51087;55.718;21.122;2022-11-20T15:17:56;-2.30;91.48
64499;SHT31;51087;55.718;21.122;2022-11-20T15:20:25;-2.27;91.52
64499;SHT31;51087;55.718;21.122;2022-11-20T15:22:51;-2.25;91.57
64499;SHT31;51087;55.718;21.122;2022-11-20T15:25:20;-2.26;91.61
64499;SHT31;51087;55.718;21.122;2022-11-20T15:27:48;-2.23;91.63
64499;SHT31;51087;55.718;21.122;2022-11-20T15:30:18;-2.22;91.61
64499;SHT31;51087;55.718;21.122;2022-11-20T15:32:44;-2.26;91.64
64499;SHT31;51087;55.718;21.122;2022-11-20T15:35:14;-2.26;91.78
64499;SHT31;51087;55.718;21.122;2022-11-20T15:37:40;-2.25;91.86
64499;SHT31;51087;55.718;21.122;2022-11-20T15:40:07;-2.25;91.86
64499;SHT31;51087;55.718;21.122;2022-11-20T15:42:33;-2.25;92.02
64499;SHT31;51087;55.718;21.122;2022-11-20T15:45:02;-2.20;92.07
64499;SHT31;51087;55.718;21.122;2022-11-20T15:47:35;-2.25;92.17
64499;SHT31;51087;55.718;21.122;2022-11-20T15:50:05;-2.23;92.23
64499;SHT31;51087;55.718;21.122;2022-11-20T15:52:34;-2.22;92.42
64499;SHT31;51087;55.718;21.122;2022-11-20T15:55:08;-2.22;92.40
64499;SHT31;51087;55.718;21.122;2022-11-20T15:57:38;-2.23;92.52
64499;SHT31;51087;55.718;21.122;2022-11-20T16:00:06;-2.25;92.52
64499;SHT31;51087;55.718;21.122;2022-11-20T16:02:35;-2.25;92.71
64499;SHT31;51087;55.718;21.122;2022-11-20T16:05:00;-2.22;92.71
64499;SHT31;51087;55.718;21.122;2022-11-20T16:07:26;-2.19;92.77
64499;SHT31;51087;55.718;21.122;2022-11-20T16:09:55;-2.25;92.77
64499;SHT31;51087;55.718;21.122;2022-11-20T16:12:21;-2.16;92.75
64499;SHT31;51087;55.718;21.122;2022-11-20T16:15:05;-2.18;92.69
64499;SHT31;51087;55.718;21.122;2022-11-20T16:17:49;-2.20;92.73
64499;SHT31;51087;55.718;21.122;2022-11-20T16:20:15;-2.19;92.72
64499;SHT31;51087;55.718;21.122;2022-11-20T16:22:40;-2.18;92.61
64499;SHT31;51087;55.718;21.122;2022-11-20T16:25:09;-2.23;92.82
64499;SHT31;51087;55.718;21.122;2022-11-20T16:27:34;-2.25;92.97
64499;SHT31;51087;55.718;21.122;2022-11-20T16:30:00;-2.27;93.03
64499;SHT31;51087;55.718;21.122;2022-11-20T16:32:25;-2.29;93.15
64499;SHT31;51087;55.718;21.122;2022-11-20T16:34:51;-2.26;93.29
64499;SHT31;51087;55.718;21.122;2022-11-20T16:37:16;-2.29;93.46
64499;SHT31;51087;55.718;21.122;2022-11-20T16:39:44;-2.29;93.47
64499;SHT31;51087;55.718;21.122;2022-11-20T16:42:09;-2.29;93.78
64499;SHT31;51087;55.718;21.122;2022-11-20T16:44:35;-2.29;93.90
64499;SHT31;51087;55.718;21.122;2022-11-20T16:47:00;-2.34;94.24
64499;SHT31;51087;55.718;21.122;2022-11-20T16:49:25;-2.37;94.60
64499;SHT31;51087;55.718;21.122;2022-11-20T16:51:51;-2.38;94.60
64499;SHT31;51087;55.718;21.122;2022-11-20T16:54:16;-2.33;94.58
64499;SHT31;51087;55.718;21.122;2022-11-20T16:56:42;-2.34;94.81
64499;SHT31;51087;55.718;21.122;2022-11-20T16:59:07;-2.38;94.82
64499;SHT31;51087;55.718;21.122;2022-11-20T17:01:34;-2.36;94.86
64499;SHT31;51087;55.718;21.122;2022-11-20T17:04:04;-2.32;94.98
64499;SHT31;51087;55.718;21.122;2022-11-20T17:06:38;-2.33;94.96
64499;SHT31;51087;55.718;21.122;2022-11-20T17:09:05;-2.30;94.94
64499;SHT31;51087;55.718;21.122;2022-11-20T17:11:34;-2.29;95.02
64499;SHT31;51087;55.718;21.122;2022-11-20T17:14:00;-2.26;94.96
64499;SHT31;51087;55.718;21.122;2022-11-20T17:16:27;-2.25;94.80
64499;SHT31;51087;55.718;21.122;2022-11-20T17:18:54;-2.23;94.55